Time;durP1;ratioP1;P1;durP2;ratioP2;P2;SDS_P1;SDS_P2;PMS_P1;PMS_P2;Temp;Humidity;BMP_temperature;BMP_pressure;BME280_temperature;BME280_humidity;BME280_pressure;Samples;Min_cycle;Max_cycle;Signal;HPM_P1;HPM_P2
2023/07/09 00:00:18;;;;;;;17.92;13.48;;;;;;;26.76;59.74;101767.28;4989312;28;20068;-47
2023/07/09 00:02:45;;;;;;;18.35;13.18;;;;;;;26.73;59.73;101770.06;4989565;28;20084;-48
2023/07/09 00:05:15;;;;;;;16.33;13.25;;;;;;;26.75;59.95;101770.00;4989883;28;20114;-49
2023/07/09 00:07:41;;;;;;;15.38;12.77;;;;;;;26.72;59.93;101770.13;4990320;28;20511;-46
2023/07/09 00:10:18;;;;;;;17.40;13.07;;;;;;;26.73;60.14;101766.50;4989885;28;20057;-51
2023/07/09 00:12:44;;;;;;;16.08;12.82;;;;;;;26.76;60.04;101777.97;4990408;28;20034;-45
2023/07/09 00:15:12;;;;;;;16.00;12.50;;;;;;;26.75;60.34;101786.94;4990831;28;20037;-45
2023/07/09 00:17:39;;;;;;;15.95;12.95;;;;;;;26.76;60.18;101795.84;4990138;28;20050;-48
2023/07/09 00:20:13;;;;;;;17.85;13.02;;;;;;;26.76;60.20;101793.16;4988793;28;20062;-45
2023/07/09 00:22:39;;;;;;;;;;;;;;;26.72;60.50;101800.41;4990163;28;20073;-43
2023/07/09 00:25:04;;;;;;;15.23;12.30;;;;;;;26.82;59.77;101798.28;4989530;28;20333;-48
2023/07/09 00:27:33;;;;;;;16.58;12.68;;;;;;;26.73;60.36;101795.94;4989674;28;20045;-44
2023/07/09 00:29:59;;;;;;;17.73;13.13;;;;;;;26.72;60.23;101794.19;4989068;28;20060;-46
2023/07/09 00:32:26;;;;;;;16.95;12.90;;;;;;;26.67;60.29;101794.38;4989730;28;20409;-47
2023/07/09 00:34:53;;;;;;;17.80;13.50;;;;;;;26.50;61.30;101795.03;4989994;28;20061;-48
2023/07/09 00:37:25;;;;;;;15.25;12.25;;;;;;;26.51;61.44;101796.78;4991665;28;20042;-46
2023/07/09 00:39:51;;;;;;;16.40;12.25;;;;;;;26.58;60.59;101792.94;4991578;28;20034;-45
2023/07/09 00:42:19;;;;;;;15.57;12.50;;;;;;;26.49;60.86;101795.97;4994320;28;20036;-50
2023/07/09 00:44:51;;;;;;;16.92;12.90;;;;;;;26.46;60.82;101795.22;4993351;28;20039;-50
2023/07/09 00:47:44;;;;;;;16.60;13.10;;;;;;;26.39;61.20;101793.69;4995622;28;20034;-48
2023/07/09 00:50:22;;;;;;;16.23;12.70;;;;;;;26.45;60.85;101790.78;4989051;28;20038;-46
2023/07/09 00:53:17;;;;;;;16.10;12.57;;;;;;;26.35;61.17;101787.56;4994541;28;20046;-41
2023/07/09 00:55:46;;;;;;;15.43;12.65;;;;;;;26.32;61.35;101792.19;4993280;28;20034;-44
2023/07/09 00:58:15;;;;;;;15.15;11.95;;;;;;;26.31;61.23;101782.41;4992342;28;20093;-51
2023/07/09 01:00:48;;;;;;;19.92;13.07;;;;;;;26.33;61.32;101776.09;5022605;23;20042;-41
2023/07/09 01:03:25;;;;;;;16.35;13.00;;;;;;;26.28;61.53;101780.75;5031969;28;20076;-46
2023/07/09 01:05:51;;;;;;;18.38;12.95;;;;;;;26.23;61.47;101779.97;5031938;28;20091;-40
2023/07/09 01:08:19;;;;;;;16.77;12.52;;;;;;;26.28;61.66;101785.22;5031809;28;20431;-42
2023/07/09 01:10:44;;;;;;;17.52;13.20;;;;;;;26.34;61.30;101785.00;5031628;28;20045;-43
2023/07/09 01:13:10;;;;;;;16.55;12.93;;;;;;;26.35;61.13;101781.38;5032368;28;20094;-47
2023/07/09 01:15:37;;;;;;;16.63;13.13;;;;;;;26.34;61.16;101793.88;5032415;28;20038;-41
2023/07/09 01:18:04;;;;;;;15.80;12.60;;;;;;;26.35;61.19;101792.09;5031060;28;20503;-42
2023/07/09 01:20:29;;;;;;;18.23;13.20;;;;;;;26.29;61.38;101792.31;5032063;28;20033;-47
2023/07/09 01:22:56;;;;;;;17.42;13.23;;;;;;;26.29;61.48;101795.81;5032310;28;20036;-42
2023/07/09 01:25:23;;;;;;;18.10;13.63;;;;;;;26.28;61.71;101807.47;5032218;28;20492;-43
2023/07/09 01:27:49;;;;;;;17.20;12.50;;;;;;;26.29;61.74;101808.34;5034369;28;20033;-43
2023/07/09 01:30:35;;;;;;;17.90;12.43;;;;;;;26.33;61.50;101809.97;5034538;28;20061;-44
2023/07/09 01:33:02;;;;;;;16.20;12.20;;;;;;;26.35;61.49;101814.31;5031991;28;20040;-41
2023/07/09 01:35:29;;;;;;;15.27;12.00;;;;;;;26.39;61.36;101812.41;5031755;28;20033;-41
2023/07/09 01:37:55;;;;;;;18.55;13.40;;;;;;;26.43;61.09;101819.38;5031265;28;20044;-42
2023/07/09 01:40:23;;;;;;;16.45;12.95;;;;;;;26.47;61.19;101816.53;5031089;28;20046;-45
2023/07/09 01:42:50;;;;;;;17.83;13.27;;;;;;;26.36;61.79;101821.41;5031182;28;20083;-43
2023/07/09 01:45:16;;;;;;;16.00;12.32;;;;;;;26.43;61.56;101816.72;5031694;28;20044;-46
2023/07/09 01:47:43;;;;;;;16.73;12.25;;;;;;;26.37;61.76;101820.50;5031639;28;20044;-43
2023/07/09 01:50:10;;;;;;;15.25;12.60;;;;;;;26.38;62.01;101830.25;5031750;28;20069;-40
2023/07/09 01:52:37;;;;;;;17.15;12.43;;;;;;;26.36;61.97;101826.75;5032434;28;20037;-45
2023/07/09 01:55:04;;;;;;;18.48;13.00;;;;;;;26.39;61.74;101824.00;5030895;28;20036;-43
2023/07/09 01:57:34;;;;;;;20.20;12.50;;;;;;;26.39;61.58;101815.97;5031785;28;20044;-43
2023/07/09 02:00:04;;;;;;;21.63;12.23;;;;;;;26.36;61.63;101815.19;5030788;28;20042;-40
2023/07/09 02:02:31;;;;;;;15.88;11.32;;;;;;;26.36;61.69;101821.41;5031600;28;20065;-44
2023/07/09 02:04:58;;;;;;;16.60;12.45;;;;;;;26.31;62.23;101820.72;5030589;28;20042;-41
2023/07/09 02:07:24;;;;;;;15.38;12.20;;;;;;;26.24;62.72;101821.88;5031228;28;20029;-40
2023/07/09 02:09:51;;;;;;;16.52;12.50;;;;;;;26.15;63.20;101827.53;5030067;28;20040;-41
2023/07/09 02:12:17;;;;;;;16.27;12.02;;;;;;;26.12;63.52;101825.81;5030801;28;20037;-40
2023/07/09 02:14:44;;;;;;;15.55;11.77;;;;;;;26.13;63.52;101821.34;5031065;28;20033;-40
2023/07/09 02:17:11;;;;;;;15.60;11.57;;;;;;;26.18;63.01;101820.25;5030668;28;20496;-41
2023/07/09 02:19:37;;;;;;;14.45;10.55;;;;;;;26.24;62.77;101819.19;5030500;28;20065;-41
2023/07/09 02:22:04;;;;;;;13.75;11.13;;;;;;;26.23;62.56;101814.72;5030553;28;20029;-40
2023/07/09 02:24:29;;;;;;;16.15;11.27;;;;;;;26.20;62.58;101813.06;5030823;28;20041;-41
2023/07/09 02:26:55;;;;;;;14.52;11.23;;;;;;;26.16;62.81;101816.78;5030485;28;20084;-40
2023/07/09 02:29:22;;;;;;;15.65;11.48;;;;;;;26.15;63.13;101816.84;5030038;28;20034;-41
2023/07/09 02:31:49;;;;;;;15.15;11.25;;;;;;;26.12;62.98;101817.81;5030331;28;20439;-42
2023/07/09 02:34:15;;;;;;;15.07;10.98;;;;;;;26.13;62.77;101811.53;5030890;28;20099;-42
2023/07/09 02:36:42;;;;;;;16.52;11.30;;;;;;;26.13;62.67;101816.00;5029335;28;20033;-41
2023/07/09 02:39:10;;;;;;;14.75;11.23;;;;;;;26.12;62.68;101804.44;5029581;28;20483;-43
2023/07/09 02:41:35;;;;;;;16.77;11.00;;;;;;;26.04;63.11;101805.66;5030841;28;20048;-42
2023/07/09 02:44:01;;;;;;;16.40;10.93;;;;;;;25.99;63.04;101812.94;5030162;28;20116;-43
2023/07/09 02:46:26;;;;;;;13.80;11.20;;;;;;;26.01;62.89;101811.97;5030803;28;20579;-45
2023/07/09 02:48:52;;;;;;;16.90;11.95;;;;;;;25.87;63.98;101816.94;5029516;28;20037;-40
2023/07/09 02:51:17;;;;;;;15.25;11.60;;;;;;;25.90;63.64;101816.84;5030627;28;20037;-41
2023/07/09 02:53:42;;;;;;;16.90;11.52;;;;;;;25.81;63.95;101811.81;5029513;28;20037;-44
2023/07/09 02:56:07;;;;;;;13.98;10.85;;;;;;;25.79;63.58;101817.22;5030953;28;20056;-43
2023/07/09 02:58:33;;;;;;;14.82;11.68;;;;;;;25.82;63.48;101822.44;5030867;28;20120;-41
2023/07/09 03:00:59;;;;;;;16.13;11.68;;;;;;;25.75;63.71;101812.91;5030206;28;20049;-45
2023/07/09 03:03:24;;;;;;;15.20;11.50;;;;;;;25.70;64.12;101812.19;5030594;28;20045;-44
2023/07/09 03:05:49;;;;;;;17.33;11.38;;;;;;;25.65;64.22;101808.81;5029772;28;20073;-42
2023/07/09 03:08:15;;;;;;;14.85;11.35;;;;;;;25.64;64.10;101815.06;5030920;28;20627;-44
2023/07/09 03:10:41;;;;;;;17.92;11.35;;;;;;;25.61;64.50;101814.31;5031237;28;20040;-42
2023/07/09 03:13:06;;;;;;;15.77;11.95;;;;;;;25.54;65.08;101818.94;5031195;28;20056;-41
2023/07/09 03:15:32;;;;;;;14.13;10.50;;;;;;;25.56;64.97;101817.09;5031076;28;20041;-43
2023/07/09 03:17:57;;;;;;;14.18;10.73;;;;;;;25.57;64.80;101823.34;5030005;28;20060;-43
2023/07/09 03:20:23;;;;;;;14.63;10.52;;;;;;;25.53;65.00;101825.22;5033001;28;20033;-39
2023/07/09 03:22:48;;;;;;;12.40;10.13;;;;;;;25.55;64.94;101825.16;5032067;28;20036;-43
2023/07/09 03:25:14;;;;;;;13.57;10.38;;;;;;;25.51;65.01;101827.06;5030608;28;20037;-43
2023/07/09 03:27:39;;;;;;;13.23;10.05;;;;;;;25.51;65.19;101818.16;5033762;28;20099;-42
2023/07/09 03:30:05;;;;;;;15.07;10.45;;;;;;;25.50;65.40;101824.44;5032690;28;20036;-45
2023/07/09 03:32:30;;;;;;;16.10;10.98;;;;;;;25.39;66.01;101827.47;5029959;28;20430;-43
2023/07/09 03:34:56;;;;;;;15.30;10.23;;;;;;;25.38;66.50;101825.72;5029837;28;20034;-43
2023/07/09 03:37:21;;;;;;;15.43;10.35;;;;;;;25.43;65.86;101831.78;5031653;28;20034;-41
2023/07/09 03:39:47;;;;;;;13.60;9.65;;;;;;;25.43;66.24;101834.47;5032760;28;20041;-42
2023/07/09 03:42:12;;;;;;;13.75;9.55;;;;;;;25.41;66.01;101826.50;5030933;28;20034;-40
2023/07/09 03:44:37;;;;;;;14.07;9.73;;;;;;;25.43;66.30;101829.13;5030088;28;20033;-39
2023/07/09 03:47:03;;;;;;;12.38;9.25;;;;;;;25.48;65.81;101836.97;5029573;28;20134;-40
2023/07/09 03:49:29;;;;;;;13.68;9.50;;;;;;;25.56;65.45;101821.53;5029122;28;20107;-41
2023/07/09 03:51:55;;;;;;;13.63;9.55;;;;;;;25.51;65.73;101827.06;5029238;28;20444;-42
2023/07/09 03:54:20;;;;;;;14.07;9.85;;;;;;;25.50;65.77;101825.31;5028252;28;20039;-42
2023/07/09 03:56:45;;;;;;;13.55;10.32;;;;;;;25.56;65.74;101829.56;5028855;28;20117;-41
2023/07/09 03:59:11;;;;;;;13.85;10.20;;;;;;;25.53;65.81;101825.22;5028852;28;20044;-41
2023/07/09 04:01:36;;;;;;;12.75;9.90;;;;;;;25.49;66.05;101828.03;5029179;28;20041;-44
2023/07/09 04:04:02;;;;;;;15.27;10.68;;;;;;;25.48;66.03;101828.97;5029368;28;20087;-43
2023/07/09 04:06:28;;;;;;;13.45;10.75;;;;;;;25.48;66.21;101819.16;5030084;28;20037;-42
2023/07/09 04:08:53;;;;;;;13.15;10.52;;;;;;;25.42;66.66;101827.38;5029423;28;20033;-43
2023/07/09 04:11:18;;;;;;;16.17;11.00;;;;;;;25.34;67.07;101832.97;5029767;28;20053;-42
2023/07/09 04:13:44;;;;;;;17.52;12.25;;;;;;;24.83;69.11;101840.75;5028946;28;20488;-48
2023/07/09 04:16:10;;;;;;;16.17;12.77;;;;;;;24.85;69.61;101846.94;5029690;28;20507;-42
2023/07/09 04:18:36;;;;;;;15.75;11.32;;;;;;;25.44;67.39;101844.19;5032621;28;20041;-42
2023/07/09 04:21:01;;;;;;;17.08;11.90;;;;;;;25.70;66.15;101835.34;5032757;28;20033;-46
2023/07/09 04:23:27;;;;;;;15.63;11.10;;;;;;;25.73;65.94;101835.25;5033340;28;20355;-42
2023/07/09 04:25:52;;;;;;;16.48;11.88;;;;;;;25.89;65.72;101841.81;5033249;28;20068;-41
2023/07/09 04:28:18;;;;;;;18.73;13.73;;;;;;;25.85;65.52;101848.19;5033244;28;20042;-42
2023/07/09 04:30:48;;;;;;;16.77;12.98;;;;;;;26.06;64.83;101842.09;5033227;28;20037;-43
2023/07/09 04:33:17;;;;;;;17.35;13.05;;;;;;;26.06;64.75;101849.22;5032994;28;20033;-40
2023/07/09 04:35:44;;;;;;;16.55;13.13;;;;;;;26.13;64.62;101848.09;5034180;28;20038;-41
2023/07/09 04:38:09;;;;;;;20.67;14.95;;;;;;;26.24;63.98;101848.59;5033568;28;20030;-40
2023/07/09 04:40:35;;;;;;;20.58;15.38;;;;;;;26.18;63.97;101846.97;5033515;28;20037;-41
2023/07/09 04:43:01;;;;;;;18.77;14.57;;;;;;;26.25;63.97;101843.19;5032965;28;20026;-43
2023/07/09 04:45:26;;;;;;;19.45;14.88;;;;;;;26.25;63.83;101842.31;5033878;28;20049;-41
2023/07/09 04:47:52;;;;;;;22.15;16.80;;;;;;;26.29;63.30;101859.16;5033561;28;20154;-41
2023/07/09 04:50:18;;;;;;;18.77;15.27;;;;;;;26.20;63.21;101849.63;5032477;28;20034;-41
2023/07/09 04:52:43;;;;;;;20.00;14.98;;;;;;;26.32;62.81;101849.19;5032345;28;20120;-42
2023/07/09 04:55:08;;;;;;;22.10;15.43;;;;;;;26.32;62.39;101851.88;5032190;28;20445;-43
2023/07/09 04:57:34;;;;;;;24.63;19.52;;;;;;;26.31;61.73;101846.56;5032664;28;20048;-41
2023/07/09 04:59:59;;;;;;;25.67;20.13;;;;;;;26.46;61.07;101856.72;5031659;28;20056;-43
2023/07/09 05:02:25;;;;;;;30.02;20.48;;;;;;;26.61;60.76;101857.00;5032109;28;20042;-43
2023/07/09 05:04:51;;;;;;;34.70;26.30;;;;;;;26.07;60.29;101865.22;5031862;28;20432;-44
2023/07/09 05:07:16;;;;;;;34.30;26.63;;;;;;;25.90;60.97;101874.75;5032829;28;20037;-43
2023/07/09 05:09:41;;;;;;;37.80;27.48;;;;;;;25.81;61.09;101874.13;5032316;28;20403;-41
2023/07/09 05:12:08;;;;;;;38.40;28.65;;;;;;;25.88;60.98;101876.59;5031721;28;20041;-43
2023/07/09 05:14:33;;;;;;;37.28;29.27;;;;;;;25.71;61.35;101874.50;5031939;28;20055;-46
2023/07/09 05:16:59;;;;;;;37.95;28.75;;;;;;;25.97;60.59;101877.16;5031654;28;20045;-42
2023/07/09 05:19:24;;;;;;;34.63;27.27;;;;;;;26.44;60.51;101869.28;5031506;28;20033;-44
2023/07/09 05:21:50;;;;;;;32.35;24.88;;;;;;;27.08;58.46;101870.38;5032832;28;20123;-44
2023/07/09 05:24:15;;;;;;;38.50;25.48;;;;;;;27.35;57.37;101866.59;5031837;28;20041;-42
2023/07/09 05:26:40;;;;;;;32.53;25.50;;;;;;;27.80;55.61;101865.69;5035178;28;20399;-41
2023/07/09 05:29:06;;;;;;;35.95;25.85;;;;;;;27.92;54.98;101872.31;5032853;28;20045;-45
2023/07/09 05:31:32;;;;;;;33.38;24.55;;;;;;;28.93;53.79;101877.59;5031648;28;20080;-43
2023/07/09 05:33:59;;;;;;;31.92;24.70;;;;;;;29.47;51.62;101860.66;5031774;28;20033;-43
2023/07/09 05:36:26;;;;;;;30.52;23.58;;;;;;;30.60;48.59;101852.97;5032328;28;20041;-42
2023/07/09 05:38:51;;;;;;;33.60;26.27;;;;;;;31.39;45.80;101853.88;5030992;28;20033;-39
2023/07/09 05:41:17;;;;;;;38.72;29.80;;;;;;;30.95;46.55;101849.19;5031622;28;20041;-40
2023/07/09 05:43:44;;;;;;;40.67;31.98;;;;;;;29.73;48.47;101852.16;5031897;28;20627;-42
2023/07/09 05:46:10;;;;;;;45.85;35.95;;;;;;;29.44;49.50;101850.06;5031505;28;20124;-44
2023/07/09 05:48:35;;;;;;;46.60;36.28;;;;;;;29.14;50.55;101851.53;5029889;28;20030;-43
2023/07/09 05:51:00;;;;;;;47.45;37.75;;;;;;;29.15;50.10;101856.84;5030751;28;20515;-44
2023/07/09 05:53:26;;;;;;;47.83;34.80;;;;;;;29.87;49.78;101846.06;5031753;28;20033;-43
2023/07/09 05:55:55;;;;;;;45.10;34.20;;;;;;;30.50;47.11;101854.41;5030198;28;20040;-45
2023/07/09 05:58:22;;;;;;;46.20;35.60;;;;;;;29.89;47.84;101862.13;5031665;28;20507;-41
2023/07/09 06:00:53;;;;;;;45.35;35.45;;;;;;;30.01;48.14;101856.97;5032704;28;20069;-47
2023/07/09 06:03:23;;;;;;;44.42;35.53;;;;;;;29.42;48.80;101858.19;5032468;28;20038;-45
2023/07/09 06:05:52;;;;;;;47.08;37.58;;;;;;;28.84;50.58;101868.19;5033208;28;20112;-42
2023/07/09 06:08:18;;;;;;;48.63;38.50;;;;;;;28.64;51.54;101868.19;5032777;28;20399;-42
2023/07/09 06:11:13;;;;;;;49.65;37.83;;;;;;;29.17;50.88;101864.81;5033796;28;20450;-43
2023/07/09 06:13:38;;;;;;;51.15;39.22;;;;;;;29.38;49.81;101859.31;5016912;28;20030;-43
2023/07/09 06:16:04;;;;;;;47.92;38.15;;;;;;;29.47;49.31;101866.03;5032732;28;20045;-43
2023/07/09 06:18:29;;;;;;;50.45;40.83;;;;;;;29.10;49.75;101866.03;5031401;28;20036;-44
2023/07/09 06:20:57;;;;;;;48.90;39.20;;;;;;;29.49;50.18;101872.19;5030868;28;20037;-43
2023/07/09 06:23:23;;;;;;;36.97;28.73;;;;;;;30.48;46.48;101873.34;5031215;28;20524;-43
2023/07/09 06:25:50;;;;;;;48.03;37.88;;;;;;;30.01;48.35;101891.09;5030600;28;20052;-44
2023/07/09 06:28:17;;;;;;;48.08;38.75;;;;;;;29.14;49.25;101884.63;5030751;28;20112;-44
2023/07/09 06:30:43;;;;;;;44.47;35.45;;;;;;;29.31;49.08;101887.38;5031159;28;20460;-45
2023/07/09 06:33:10;;;;;;;42.08;34.38;;;;;;;29.19;48.11;101897.84;5030511;28;20037;-43
2023/07/09 06:35:35;;;;;;;39.22;31.83;;;;;;;28.94;47.69;101888.25;5030999;28;20045;-47
2023/07/09 06:38:00;;;;;;;40.55;31.08;;;;;;;28.69;48.96;101900.16;5029941;28;20038;-40
2023/07/09 06:40:26;;;;;;;42.95;34.45;;;;;;;29.25;47.63;101897.53;5030162;28;20120;-46
2023/07/09 06:42:51;;;;;;;37.90;31.10;;;;;;;29.59;47.06;101899.47;5029952;28;20069;-42
2023/07/09 06:45:17;;;;;;;37.08;29.60;;;;;;;29.32;48.47;101909.72;5030628;28;20416;-42
2023/07/09 06:47:42;;;;;;;35.45;28.67;;;;;;;29.17;49.11;101922.06;5030493;28;20037;-43
2023/07/09 06:50:08;;;;;;;37.97;30.23;;;;;;;28.80;49.99;101922.03;5029495;28;20041;-42
2023/07/09 06:52:33;;;;;;;33.03;26.27;;;;;;;29.29;49.06;101921.50;5030250;28;20037;-44
2023/07/09 06:54:58;;;;;;;27.30;21.42;;;;;;;30.57;43.70;101931.19;5030061;28;20513;-42
2023/07/09 06:57:24;;;;;;;29.08;22.17;;;;;;;30.47;44.32;101941.53;5030476;28;20492;-45
2023/07/09 06:59:49;;;;;;;21.27;16.80;;;;;;;30.55;40.72;101943.88;5029204;28;20029;-42
2023/07/09 07:02:14;;;;;;;23.25;15.15;;;;;;;29.76;42.37;101931.78;5029903;23;20045;-50
2023/07/09 07:04:41;;;;;;;19.58;13.85;;;;;;;30.43;41.87;101936.41;5010185;28;20064;-49
2023/07/09 07:07:07;;;;;;;20.30;12.40;;;;;;;31.13;39.06;101940.72;5009716;28;20091;-51
2023/07/09 07:09:32;;;;;;;16.23;11.55;;;;;;;31.63;37.29;101937.88;5010226;28;20527;-45
2023/07/09 07:11:58;;;;;;;18.02;11.63;;;;;;;31.83;36.86;101934.88;5010151;28;20064;-46
2023/07/09 07:14:23;;;;;;;16.15;10.02;;;;;;;32.05;36.98;101940.75;5010767;28;20091;-46
2023/07/09 07:16:48;;;;;;;14.82;9.50;;;;;;;32.56;36.08;101939.44;5010466;28;20037;-46
2023/07/09 07:19:14;;;;;;;15.80;9.95;;;;;;;32.02;37.62;101938.22;5009580;28;20054;-46
2023/07/09 07:21:39;;;;;;;14.57;9.93;;;;;;;31.53;37.44;101934.81;5009805;28;20126;-49
2023/07/09 07:24:05;;;;;;;14.43;10.18;;;;;;;31.95;36.04;101928.78;5009665;28;20053;-46
2023/07/09 07:26:30;;;;;;;10.85;8.02;;;;;;;32.70;35.06;101929.63;5009893;28;20034;-43
2023/07/09 07:28:55;;;;;;;13.85;9.98;;;;;;;33.17;33.92;101907.69;5008869;28;20084;-49
2023/07/09 07:31:21;;;;;;;16.00;10.63;;;;;;;32.43;34.22;101914.16;5009820;28;20037;-48
2023/07/09 07:33:46;;;;;;;12.30;9.13;;;;;;;33.68;33.30;101904.25;5009560;28;20034;-47
2023/07/09 07:36:12;;;;;;;13.60;9.80;;;;;;;33.63;33.85;101902.84;5009988;28;20446;-44
2023/07/09 07:38:37;;;;;;;14.93;9.25;;;;;;;33.69;34.08;101905.13;5009451;28;20493;-46
2023/07/09 07:41:02;;;;;;;14.35;8.43;;;;;;;33.03;35.15;101901.34;5009469;28;20037;-46
2023/07/09 07:43:28;;;;;;;14.68;9.30;;;;;;;32.27;36.33;101912.47;5009833;28;20030;-45
2023/07/09 07:45:54;;;;;;;12.05;8.07;;;;;;;31.94;37.72;101901.88;5009398;28;20042;-45
2023/07/09 07:48:19;;;;;;;13.20;7.68;;;;;;;32.29;37.56;101905.16;5009516;28;20041;-49
2023/07/09 07:50:47;;;;;;;8.85;6.43;;;;;;;32.99;36.05;101897.13;5009859;28;20421;-47
2023/07/09 07:53:14;;;;;;;9.15;6.13;;;;;;;33.61;34.26;101893.94;5016260;28;20041;-48
2023/07/09 07:55:40;;;;;;;10.90;6.72;;;;;;;33.57;34.74;101892.44;5016340;28;20061;-44
2023/07/09 07:58:05;;;;;;;9.35;6.70;;;;;;;33.90;34.46;101897.44;5015150;28;20480;-46
2023/07/09 08:00:31;;;;;;;11.65;5.90;;;;;;;33.97;34.96;101890.66;5016020;28;20037;-45
2023/07/09 08:02:56;;;;;;;10.25;5.55;;;;;;;33.34;36.02;101902.09;5015739;28;20628;-47
2023/07/09 08:05:23;;;;;;;8.60;4.90;;;;;;;33.37;35.15;101899.16;5015908;28;20049;-47
2023/07/09 08:07:49;;;;;;;8.88;5.97;;;;;;;32.48;37.07;101901.25;5015944;28;20037;-46
2023/07/09 08:10:15;;;;;;;8.68;5.43;;;;;;;32.66;37.81;101898.34;5015530;28;20080;-44
2023/07/09 08:12:41;;;;;;;8.57;5.35;;;;;;;32.26;36.81;101886.47;5016096;28;20044;-48
2023/07/09 08:15:07;;;;;;;8.82;5.28;;;;;;;33.20;35.08;101883.19;5015919;28;20026;-47
2023/07/09 08:17:32;;;;;;;10.18;6.60;;;;;;;33.41;35.01;101892.59;5016070;28;20034;-48
2023/07/09 08:19:58;;;;;;;7.20;4.80;;;;;;;33.67;34.80;101888.13;5015123;28;20038;-46
2023/07/09 08:22:24;;;;;;;8.85;5.13;;;;;;;32.54;36.85;101900.88;5016259;28;20038;-44
2023/07/09 08:24:50;;;;;;;10.05;5.25;;;;;;;32.01;37.26;101893.34;5015583;28;20124;-44
2023/07/09 08:27:16;;;;;;;6.72;5.03;;;;;;;31.86;37.66;101886.16;5016228;28;20030;-43
2023/07/09 08:29:42;;;;;;;9.60;5.00;;;;;;;32.51;36.82;101884.84;5015694;28;20511;-47
2023/07/09 08:32:08;;;;;;;7.05;5.00;;;;;;;32.10;36.83;101884.66;5015524;28;20030;-49
2023/07/09 08:34:33;;;;;;;8.05;4.75;;;;;;;32.34;36.70;101885.03;5015928;28;20492;-46
2023/07/09 08:36:59;;;;;;;7.80;4.88;;;;;;;32.19;38.04;101884.16;5015419;28;20053;-48
2023/07/09 08:39:24;;;;;;;8.18;4.18;;;;;;;32.36;37.65;101882.25;5015354;28;20034;-43
2023/07/09 08:41:59;;;;;;;8.13;5.03;;;;;;;32.21;36.77;101881.34;5015352;28;20496;-44
2023/07/09 08:44:36;;;;;;;7.32;4.60;;;;;;;31.13;39.76;101890.41;5016045;28;20481;-46
2023/07/09 08:47:17;;;;;;;12.60;5.03;;;;;;;31.19;40.37;101900.81;5015533;28;20030;-49
2023/07/09 08:50:29;;;;;;;9.88;4.30;;;;;;;31.55;39.26;101899.66;5015608;28;20049;-44
2023/07/09 08:52:57;;;;;;;6.28;4.45;;;;;;;31.09;40.34;101906.81;5015002;28;20128;-47
2023/07/09 08:55:29;;;;;;;7.25;4.30;;;;;;;31.32;39.73;101911.78;5015799;28;20076;-48
2023/07/09 08:58:01;;;;;;;9.95;4.80;;;;;;;30.92;40.38;101911.28;5015222;28;20041;-48
2023/07/09 09:00:41;;;;;;;7.05;4.20;;;;;;;31.25;40.44;101910.38;5015506;28;20033;-52
2023/07/09 09:03:48;;;;;;;7.03;3.80;;;;;;;31.63;40.29;101922.56;5013801;28;20056;-41
2023/07/09 09:06:17;;;;;;;5.35;3.60;;;;;;;31.34;41.09;101924.22;5012463;28;20062;-47
2023/07/09 09:08:48;;;;;;;6.78;3.63;;;;;;;30.91;41.28;101924.84;5012216;28;20504;-47
2023/07/09 09:11:21;;;;;;;7.45;3.90;;;;;;;30.70;42.09;101926.88;5012134;28;20038;-46
2023/07/09 09:13:50;;;;;;;4.78;3.63;;;;;;;31.19;41.86;101921.50;5011872;28;20472;-45
2023/07/09 09:16:26;;;;;;;4.82;3.50;;;;;;;31.26;41.54;101921.09;5012623;28;20488;-50
2023/07/09 09:18:57;;;;;;;6.57;3.40;;;;;;;31.84;38.94;101915.03;5011593;28;20041;-48
2023/07/09 09:21:32;;;;;;;5.85;2.92;;;;;;;31.98;38.31;101920.47;5012381;28;20104;-46
2023/07/09 09:24:34;;;;;;;5.55;2.85;;;;;;;32.20;38.77;101914.72;5011773;28;20038;-47
2023/07/09 09:26:59;;;;;;;4.40;2.30;;;;;;;32.18;37.50;101908.53;4968038;28;20416;-46
2023/07/09 09:29:25;;;;;;;4.55;2.20;;;;;;;32.34;37.76;101900.34;5011741;28;20045;-45
2023/07/09 09:31:55;;;;;;;4.72;2.40;;;;;;;31.68;36.95;101898.03;5012433;28;20034;-45
2023/07/09 09:34:29;;;;;;;5.18;2.65;;;;;;;31.17;37.95;101886.56;5013583;28;20037;-49
2023/07/09 09:36:56;;;;;;;5.45;2.70;;;;;;;30.39;39.97;101891.75;5013165;28;20044;-45
2023/07/09 09:39:24;;;;;;;5.43;2.65;;;;;;;30.63;39.55;101896.72;5011741;28;20030;-45
2023/07/09 09:41:54;;;;;;;5.78;2.92;;;;;;;30.70;39.59;101901.78;5011514;28;20052;-46
2023/07/09 09:44:26;;;;;;;5.68;2.72;;;;;;;30.48;40.34;101902.94;5012025;28;20093;-48
2023/07/09 09:46:51;;;;;;;5.15;3.00;;;;;;;31.00;39.43;101898.25;5011449;28;20057;-45
2023/07/09 09:49:17;;;;;;;4.90;2.85;;;;;;;31.11;39.11;101913.00;5011137;28;20034;-45
2023/07/09 09:51:45;;;;;;;4.68;2.75;;;;;;;30.99;39.60;101912.69;5011758;28;20042;-50
2023/07/09 09:54:18;;;;;;;4.10;2.70;;;;;;;31.38;38.10;101917.69;5011275;28;20030;-47
2023/07/09 09:56:44;;;;;;;4.53;2.92;;;;;;;31.36;39.16;101919.59;5011796;28;20034;-47
2023/07/09 09:59:21;;;;;;;7.13;2.90;;;;;;;30.57;41.14;101915.91;5010692;28;20040;-48
2023/07/09 10:01:48;;;;;;;7.40;3.20;;;;;;;29.83;42.58;101917.06;5010760;28;20493;-50
2023/07/09 10:04:18;;;;;;;7.30;3.40;;;;;;;30.54;41.87;101918.78;5011271;28;20080;-46
2023/07/09 10:06:50;;;;;;;6.85;3.10;;;;;;;30.89;40.29;101915.97;5010991;28;20528;-47
2023/07/09 10:09:22;;;;;;;7.57;2.88;;;;;;;30.70;40.80;101915.22;5011544;28;20030;-48
2023/07/09 10:12:03;;;;;;;7.28;3.13;;;;;;;31.33;39.71;101911.69;5011974;28;20563;-50
2023/07/09 10:14:49;;;;;;;5.72;3.03;;;;;;;31.40;40.53;101913.09;5012033;28;20038;-49
2023/07/09 10:17:38;;;;;;;5.47;2.90;;;;;;;31.84;38.48;101910.50;5011105;28;20034;-46
2023/07/09 10:20:17;;;;;;;7.60;3.15;;;;;;;32.02;38.01;101905.84;5010454;28;20034;-46
2023/07/09 10:23:02;;;;;;;4.57;2.97;;;;;;;31.89;38.71;101904.88;5010919;28;20045;-49
2023/07/09 10:25:41;;;;;;;5.15;3.00;;;;;;;31.59;38.73;101895.88;5010973;28;20046;-46
2023/07/09 10:28:17;;;;;;;6.97;3.17;;;;;;;31.95;39.21;101899.09;5010939;28;20080;-48
2023/07/09 10:31:08;;;;;;;5.10;3.30;;;;;;;31.71;40.14;101905.94;5013509;28;20046;-46
2023/07/09 10:33:58;;;;;;;5.22;3.10;;;;;;;31.56;39.85;101906.78;5013233;28;20038;-45
2023/07/09 10:37:00;;;;;;;5.88;3.10;;;;;;;31.96;39.33;101911.59;5013242;28;20046;-46
2023/07/09 10:39:32;;;;;;;5.28;3.13;;;;;;;32.11;38.74;101921.50;5012545;28;20038;-46
2023/07/09 10:42:00;;;;;;;7.25;3.53;;;;;;;32.31;38.68;101944.59;5012813;28;20041;-46
2023/07/09 10:44:36;;;;;;;5.35;3.08;;;;;;;31.81;39.13;101947.59;5012220;28;20107;-45
2023/07/09 10:47:39;;;;;;;6.55;3.10;;;;;;;32.77;36.97;101952.59;5010240;28;20041;-49
2023/07/09 10:50:14;;;;;;;4.85;3.45;;;;;;;32.29;37.51;101940.25;4949317;28;20063;-48
2023/07/09 10:52:46;;;;;;;7.15;3.38;;;;;;;32.58;36.56;101942.03;5003038;28;20081;-47
2023/07/09 10:55:37;;;;;;;6.32;3.60;;;;;;;31.94;38.99;101945.03;5010322;28;20032;-48
2023/07/09 10:58:10;;;;;;;5.75;3.20;;;;;;;31.99;39.69;101953.72;5009669;28;20571;-43
2023/07/09 11:00:39;;;;;;;5.25;3.33;;;;;;;32.35;38.23;101950.66;5010510;28;20045;-50
2023/07/09 11:03:18;;;;;;;5.25;3.28;;;;;;;31.98;38.73;101950.16;5010531;28;20042;-49
2023/07/09 11:05:44;;;;;;;6.00;3.15;;;;;;;32.28;36.98;101946.59;5010594;28;20045;-50
2023/07/09 11:08:17;;;;;;;5.10;3.40;;;;;;;32.00;37.49;101947.38;5009674;28;20041;-45
2023/07/09 11:10:48;;;;;;;;;;;;;;;32.32;37.90;101946.34;5011225;28;20033;-42
2023/07/09 11:13:25;;;;;;;6.78;3.22;;;;;;;31.76;38.25;101931.69;5010434;28;19959;-47
2023/07/09 11:15:54;;;;;;;6.10;3.28;;;;;;;31.96;37.76;101933.19;5009874;28;20073;-46
2023/07/09 11:18:26;;;;;;;5.78;3.20;;;;;;;32.05;37.72;101938.03;5010138;28;20049;-47
2023/07/09 11:21:00;;;;;;;5.28;3.47;;;;;;;31.89;38.01;101937.22;5009900;28;20038;-48